createdAt,value
2022-11-20T00:00:26.490Z,9.27
2022-11-20T00:02:54.050Z,9.00
2022-11-20T00:05:21.969Z,8.25
2022-11-20T00:07:49.512Z,8.98
2022-11-20T00:10:17.070Z,8.82
2022-11-20T00:12:44.646Z,8.45
2022-11-20T00:15:12.170Z,9.05
2022-11-20T00:17:39.865Z,8.90
2022-11-20T00:20:07.702Z,8.40
2022-11-20T00:22:35.295Z,8.75
2022-11-20T00:25:02.834Z,8.77
2022-11-20T00:27:30.424Z,8.35
2022-11-20T00:29:58.273Z,8.27
2022-11-20T00:32:26.117Z,8.52
2022-11-20T00:34:53.662Z,8.05
2022-11-20T00:37:21.166Z,8.55
2022-11-20T00:39:48.771Z,8.25
2022-11-20T00:42:16.334Z,8.20
2022-11-20T00:44:43.867Z,8.98
2022-11-20T00:47:11.468Z,9.07
2022-11-20T00:49:38.974Z,9.02
2022-11-20T00:52:06.511Z,9.13
2022-11-20T00:54:34.039Z,8.32
2022-11-20T00:57:01.578Z,7.88
2022-11-20T00:59:29.184Z,8.85
2022-11-20T01:01:56.775Z,9.90
2022-11-20T01:04:24.331Z,8.85
2022-11-20T01:06:51.962Z,8.27
2022-11-20T01:09:19.735Z,8.40
2022-11-20T01:11:47.636Z,7.50
2022-11-20T01:14:17.373Z,7.82
2022-11-20T01:16:46.562Z,7.38
2022-11-20T01:19:17.942Z,7.13
2022-11-20T01:21:46.957Z,7.82
2022-11-20T01:24:15.467Z,7.68
2022-11-20T01:26:44.022Z,7.15
2022-11-20T01:29:15.531Z,7.45
2022-11-20T01:31:43.771Z,7.53
2022-11-20T01:34:12.974Z,7.22
2022-11-20T01:36:40.945Z,8.20
2022-11-20T01:39:11.766Z,8.07
2022-11-20T01:41:58.761Z,7.75
2022-11-20T01:45:02.125Z,8.13
2022-11-20T01:47:35.473Z,7.45
2022-11-20T01:50:05.787Z,7.22
2022-11-20T01:52:36.323Z,6.93
2022-11-20T01:55:11.416Z,7.45
2022-11-20T01:57:40.296Z,6.82
2022-11-20T02:00:10.389Z,6.40
2022-11-20T02:02:42.588Z,6.82
2022-11-20T02:05:28.758Z,6.72
2022-11-20T02:07:57.849Z,6.68
2022-11-20T02:10:25.483Z,6.63
2022-11-20T02:13:11.848Z,6.15
2022-11-20T02:15:39.541Z,6.43
2022-11-20T02:18:07.330Z,6.30
2022-11-20T02:20:35.177Z,6.25
2022-11-20T02:23:11.136Z,6.28
2022-11-20T02:25:39.217Z,6.55
2022-11-20T02:28:07.390Z,6.13
2022-11-20T02:30:34.924Z,6.18
2022-11-20T02:33:02.447Z,5.72
2022-11-20T02:35:29.966Z,6.20
2022-11-20T02:37:59.385Z,6.72
2022-11-20T02:40:27.143Z,6.25
2022-11-20T02:42:55.069Z,6.13
2022-11-20T02:45:23.674Z,5.55
2022-11-20T02:47:51.484Z,6.00
2022-11-20T02:50:19.226Z,5.50
2022-11-20T02:52:46.752Z,6.10
2022-11-20T02:55:14.317Z,6.38
2022-11-20T02:57:41.825Z,5.85
2022-11-20T03:00:10.021Z,6.30
2022-11-20T03:02:37.713Z,5.47
2022-11-20T03:05:05.346Z,5.90
2022-11-20T03:07:32.977Z,5.65
2022-11-20T03:10:00.594Z,5.72
2022-11-20T03:12:28.116Z,6.50
2022-11-20T03:14:55.662Z,5.75
2022-11-20T03:17:23.255Z,5.60
2022-11-20T03:19:50.808Z,5.72
2022-11-20T03:22:18.314Z,5.65
2022-11-20T03:24:45.838Z,5.53
2022-11-20T03:27:13.380Z,5.72
2022-11-20T03:29:40.933Z,5.65
2022-11-20T03:32:08.624Z,5.35
2022-11-20T03:34:36.180Z,6.30
2022-11-20T03:37:03.755Z,5.05
2022-11-20T03:39:31.290Z,5.47
2022-11-20T03:41:58.822Z,5.25
2022-11-20T03:44:26.396Z,5.22
2022-11-20T03:46:53.911Z,4.65
2022-11-20T03:49:21.968Z,4.60
2022-11-20T03:51:49.797Z,4.70
2022-11-20T03:54:17.317Z,4.80
2022-11-20T03:56:44.805Z,4.22
2022-11-20T03:59:12.518Z,4.03
2022-11-20T04:01:41.383Z,3.60
2022-11-20T04:04:10.725Z,4.32
2022-11-20T04:06:39.132Z,4.47
2022-11-20T04:09:07.491Z,4.28
2022-11-20T04:11:36.332Z,4.75
2022-11-20T04:14:05.226Z,3.83
2022-11-20T04:16:33.871Z,4.25
2022-11-20T04:19:02.093Z,3.88
2022-11-20T04:21:30.111Z,4.00
2022-11-20T04:23:57.904Z,4.63
2022-11-20T04:26:26.298Z,3.88
2022-11-20T04:28:54.044Z,4.18
2022-11-20T04:31:23.297Z,4.05
2022-11-20T04:33:50.860Z,4.00
2022-11-20T04:36:22.376Z,3.70
2022-11-20T04:39:00.260Z,3.95
2022-11-20T04:41:29.380Z,3.88
2022-11-20T04:44:00.556Z,4.47
2022-11-20T04:46:29.043Z,4.13
2022-11-20T04:48:56.691Z,4.18
2022-11-20T04:51:24.742Z,4.03
2022-11-20T04:53:52.331Z,4.10
2022-11-20T04:56:19.896Z,4.47
2022-11-20T04:58:47.417Z,4.30
2022-11-20T05:01:24.934Z,3.97
2022-11-20T05:03:52.795Z,3.22
2022-11-20T05:06:21.732Z,2.72
2022-11-20T05:08:49.401Z,3.83
2022-11-20T05:11:18.435Z,3.40
2022-11-20T05:13:46.095Z,3.10
2022-11-20T05:16:15.201Z,3.03
2022-11-20T05:18:43.116Z,3.30
2022-11-20T05:21:11.520Z,3.00
2022-11-20T05:23:39.579Z,3.03
2022-11-20T05:26:08.250Z,2.47
2022-11-20T05:28:35.907Z,3.15
2022-11-20T05:31:10.939Z,2.60
2022-11-20T05:33:38.880Z,2.85
2022-11-20T05:36:06.648Z,2.72
2022-11-20T05:38:34.187Z,3.10
2022-11-20T05:41:06.478Z,2.97
2022-11-20T05:43:35.539Z,3.30
2022-11-20T05:46:03.636Z,3.55
2022-11-20T05:48:31.568Z,3.25
2022-11-20T05:51:00.011Z,2.90
2022-11-20T05:53:27.912Z,3.28
2022-11-20T05:56:02.393Z,3.03
2022-11-20T05:58:30.452Z,3.83
2022-11-20T06:01:04.968Z,3.40
2022-11-20T06:03:32.638Z,3.83
2022-11-20T06:06:00.730Z,3.53
2022-11-20T06:08:28.303Z,3.53
2022-11-20T06:10:55.844Z,4.45
2022-11-20T06:13:26.442Z,4.32
2022-11-20T06:15:54.485Z,4.10
2022-11-20T06:18:22.230Z,4.43
2022-11-20T06:20:49.781Z,4.32
2022-11-20T06:23:17.296Z,4.43
2022-11-20T06:25:45.000Z,4.85
2022-11-20T06:28:12.511Z,4.32
2022-11-20T06:30:47.038Z,4.10
2022-11-20T06:33:14.595Z,3.88
2022-11-20T06:35:42.148Z,3.90
2022-11-20T06:38:09.749Z,3.78
2022-11-20T06:40:37.331Z,3.90
2022-11-20T06:43:04.828Z,3.65
2022-11-20T06:45:32.351Z,3.50
2022-11-20T06:48:00.087Z,3.42
2022-11-20T06:50:27.715Z,4.00
2022-11-20T06:52:55.210Z,3.83
2022-11-20T06:55:22.871Z,4.05
2022-11-20T06:57:53.384Z,3.75
2022-11-20T07:00:23.411Z,3.67
2022-11-20T07:02:50.968Z,3.55
2022-11-20T07:05:18.952Z,3.70
2022-11-20T07:07:46.508Z,3.67
2022-11-20T07:10:14.170Z,4.47
2022-11-20T07:12:41.829Z,4.18
2022-11-20T07:15:09.605Z,3.67
2022-11-20T07:17:37.184Z,3.60
2022-11-20T07:20:04.911Z,3.70
2022-11-20T07:22:32.521Z,3.60
2022-11-20T07:25:00.077Z,4.30
2022-11-20T07:27:27.601Z,4.00
2022-11-20T07:29:55.165Z,3.83
2022-11-20T07:32:23.032Z,4.00
2022-11-20T07:34:50.626Z,3.38
2022-11-20T07:37:18.164Z,3.38
2022-11-20T07:39:45.734Z,3.38
2022-11-20T07:42:13.268Z,3.30
2022-11-20T07:44:40.782Z,3.50
2022-11-20T07:47:08.530Z,3.20
2022-11-20T07:49:36.081Z,3.55
2022-11-20T07:52:05.279Z,3.70
2022-11-20T07:54:33.036Z,3.60
2022-11-20T07:57:00.565Z,3.67
2022-11-20T07:59:28.112Z,3.47
2022-11-20T08:01:55.673Z,3.42
2022-11-20T08:04:24.348Z,3.78
2022-11-20T08:06:53.570Z,3.80
2022-11-20T08:09:21.291Z,4.13
2022-11-20T08:12:07.551Z,3.90
2022-11-20T08:14:35.060Z,3.70
2022-11-20T08:17:02.638Z,3.85
2022-11-20T08:19:30.455Z,3.42
2022-11-20T08:21:57.963Z,3.70
2022-11-20T08:24:27.289Z,4.00
2022-11-20T08:26:54.840Z,3.80
2022-11-20T08:29:22.731Z,3.83
2022-11-20T08:31:50.456Z,3.40
2022-11-20T08:34:19.289Z,3.42
2022-11-20T08:36:47.026Z,4.15
2022-11-20T08:39:14.807Z,4.13
2022-11-20T08:41:42.335Z,4.50
2022-11-20T08:44:10.121Z,3.90
2022-11-20T08:46:39.086Z,3.50
2022-11-20T08:49:07.397Z,4.00
2022-11-20T08:51:35.247Z,3.70
2022-11-20T08:54:03.037Z,3.92
2022-11-20T08:56:30.599Z,4.07
2022-11-20T09:01:47.907Z,3.35
2022-11-20T09:04:15.520Z,3.38
2022-11-20T09:06:43.113Z,3.08
2022-11-20T09:09:10.629Z,2.70
2022-11-20T09:11:38.166Z,2.30
2022-11-20T09:14:05.700Z,2.40
2022-11-20T09:16:33.257Z,2.55
2022-11-20T09:19:34.037Z,2.28
2022-11-20T09:21:48.282Z,2.42
2022-11-20T09:24:18.349Z,2.25
2022-11-20T09:26:46.288Z,1.98
2022-11-20T09:29:14.058Z,1.40
2022-11-20T09:31:41.570Z,1.60
2022-11-20T09:34:09.263Z,1.40
2022-11-20T09:36:36.902Z,1.42
2022-11-20T09:39:04.463Z,1.30
2022-11-20T09:41:55.118Z,1.42
2022-11-20T09:44:33.848Z,2.03
2022-11-20T09:47:01.408Z,2.05
2022-11-20T09:49:35.411Z,2.15
2022-11-20T09:52:21.730Z,2.72
2022-11-20T09:54:50.169Z,2.92
2022-11-20T09:57:22.806Z,2.90
2022-11-20T09:59:52.727Z,2.83
2022-11-20T10:02:32.474Z,2.72
2022-11-20T10:05:13.877Z,2.97
2022-11-20T10:07:57.328Z,2.92
2022-11-20T10:10:49.465Z,2.88
2022-11-20T10:13:38.729Z,2.90
2022-11-20T10:16:24.648Z,2.65
2022-11-20T10:19:00.501Z,3.08
2022-11-20T10:21:28.018Z,2.97
2022-11-20T10:24:01.269Z,3.10
2022-11-20T10:26:39.231Z,3.00
2022-11-20T10:29:12.616Z,2.90
2022-11-20T10:31:42.095Z,2.72
2022-11-20T10:34:22.393Z,3.20
2022-11-20T10:36:57.937Z,3.10
2022-11-20T10:39:30.483Z,2.75
2022-11-20T10:41:58.537Z,3.30
2022-11-20T10:44:51.255Z,3.13
2022-11-20T10:47:22.123Z,2.75
2022-11-20T10:50:00.199Z,3.00
2022-11-20T10:52:46.643Z,2.97
2022-11-20T10:55:29.447Z,3.30
2022-11-20T10:57:57.063Z,2.80
2022-11-20T11:00:24.630Z,2.72
2022-11-20T11:02:54.008Z,2.95
2022-11-20T11:05:24.681Z,2.50
2022-11-20T11:07:54.950Z,2.85
2022-11-20T11:10:42.260Z,2.90
2022-11-20T11:13:20.531Z,2.95
2022-11-20T11:15:48.314Z,3.53
2022-11-20T11:18:25.013Z,3.65
2022-11-20T11:20:53.238Z,3.58
2022-11-20T11:23:30.895Z,3.85
2022-11-20T11:26:00.018Z,2.80
2022-11-20T11:28:28.886Z,2.55
2022-11-20T11:30:56.943Z,2.78
2022-11-20T11:33:31.488Z,2.58
2022-11-20T11:36:03.501Z,2.88
2022-11-20T11:38:31.023Z,3.22
2022-11-20T11:40:59.123Z,3.97
2022-11-20T11:43:46.628Z,3.50
2022-11-20T11:46:26.106Z,3.60
2022-11-20T11:49:05.614Z,3.50
2022-11-20T11:51:51.823Z,3.42
2022-11-20T11:54:22.003Z,3.97
2022-11-20T11:56:49.935Z,4.35
2022-11-20T11:59:25.463Z,3.72
2022-11-20T12:02:01.651Z,3.80
2022-11-20T12:04:45.482Z,4.15
2022-11-20T12:07:45.560Z,3.83
2022-11-20T12:10:30.669Z,4.10
2022-11-20T12:13:03.385Z,7.07
2022-11-20T12:15:32.856Z,7.88
2022-11-20T12:18:00.546Z,8.40
2022-11-20T12:20:30.722Z,9.57
2022-11-20T12:23:09.948Z,10.30
2022-11-20T12:25:38.409Z,14.68
2022-11-20T12:28:05.905Z,17.95
2022-11-20T12:30:36.442Z,15.77
2022-11-20T12:33:09.671Z,29.33
2022-11-20T12:35:55.527Z,14.60
2022-11-20T12:38:40.864Z,13.43
2022-11-20T12:41:35.449Z,14.93
2022-11-20T12:44:29.917Z,14.73
2022-11-20T12:47:09.648Z,15.25
2022-11-20T12:49:47.221Z,15.18
2022-11-20T12:52:24.370Z,15.30
2022-11-20T12:55:18.514Z,15.73
2022-11-20T12:57:54.376Z,14.90
2022-11-20T13:00:22.915Z,16.38
2022-11-20T13:02:53.506Z,16.25
2022-11-20T13:05:23.452Z,16.90
2022-11-20T13:07:53.247Z,15.57
2022-11-20T13:10:38.899Z,15.82
2022-11-20T13:13:17.888Z,16.40
2022-11-20T13:15:55.985Z,16.75
2022-11-20T13:18:23.544Z,17.23
2022-11-20T13:20:52.026Z,17.85
2022-11-20T13:23:29.262Z,16.85
2022-11-20T13:26:07.685Z,18.13
2022-11-20T13:28:35.413Z,17.50
2022-11-20T13:31:02.967Z,16.83
2022-11-20T13:33:32.405Z,16.95
2022-11-20T13:36:19.928Z,16.85
2022-11-20T13:38:52.077Z,17.52
2022-11-20T13:41:32.086Z,17.85
2022-11-20T13:44:05.292Z,17.02
2022-11-20T13:46:46.457Z,17.05
2022-11-20T13:49:23.192Z,16.80
2022-11-20T13:51:52.378Z,17.27
2022-11-20T13:54:23.256Z,17.02
2022-11-20T13:57:09.680Z,17.00
2022-11-20T13:59:56.103Z,16.58
2022-11-20T14:02:24.713Z,17.02
2022-11-20T14:04:54.381Z,17.77
2022-11-20T14:07:23.316Z,18.13
2022-11-20T14:09:54.923Z,19.85
2022-11-20T14:12:29.889Z,19.05
2022-11-20T14:14:57.488Z,17.38
2022-11-20T14:17:30.829Z,16.60
2022-11-20T14:20:01.460Z,16.67
2022-11-20T14:22:29.372Z,17.98
2022-11-20T14:25:05.559Z,16.77
2022-11-20T14:30:02.595Z,17.00
2022-11-20T14:32:31.349Z,17.25
2022-11-20T14:35:02.453Z,16.80
2022-11-20T14:37:33.106Z,16.63
2022-11-20T14:40:01.687Z,17.10
2022-11-20T14:42:31.722Z,16.52
2022-11-20T14:45:00.851Z,17.40
2022-11-20T14:47:32.355Z,17.55
2022-11-20T14:50:02.642Z,19.30
2022-11-20T14:52:33.453Z,18.23
2022-11-20T14:55:01.102Z,19.52
2022-11-20T14:57:29.913Z,20.15
2022-11-20T15:00:08.754Z,19.67
2022-11-20T15:02:36.354Z,19.42
2022-11-20T15:05:04.290Z,19.55
2022-11-20T15:07:33.528Z,18.70
2022-11-20T15:10:01.995Z,20.35
2022-11-20T15:12:30.681Z,20.63
2022-11-20T15:14:58.230Z,20.92
2022-11-20T15:17:26.018Z,20.88
2022-11-20T15:19:54.512Z,20.90
2022-11-20T15:22:22.053Z,20.27
2022-11-20T15:24:49.577Z,22.17
2022-11-20T15:27:17.187Z,20.17
2022-11-20T15:29:44.739Z,22.13
2022-11-20T15:32:13.735Z,21.73
2022-11-20T15:34:41.473Z,24.20
2022-11-20T15:37:09.045Z,21.50
2022-11-20T15:39:36.577Z,26.08
2022-11-20T15:42:04.159Z,23.17
2022-11-20T15:44:32.223Z,23.88
2022-11-20T15:46:59.914Z,28.00
2022-11-20T15:49:27.468Z,21.95
2022-11-20T15:51:54.990Z,22.20
2022-11-20T15:54:23.977Z,24.52
2022-11-20T15:56:54.961Z,24.55
2022-11-20T15:59:22.691Z,22.13
2022-11-20T16:01:50.688Z,20.73
2022-11-20T16:04:19.467Z,23.58
2022-11-20T16:06:47.112Z,25.70
2022-11-20T16:09:17.094Z,28.73
2022-11-20T16:11:45.267Z,32.85
2022-11-20T16:14:31.709Z,31.98
2022-11-20T16:16:59.438Z,28.88
2022-11-20T16:19:27.417Z,33.17
2022-11-20T16:22:01.187Z,27.92
2022-11-20T16:24:30.341Z,23.80
2022-11-20T16:26:58.059Z,26.40
2022-11-20T16:29:25.572Z,24.08
2022-11-20T16:31:53.124Z,23.63
2022-11-20T16:34:20.825Z,24.38
2022-11-20T16:36:49.371Z,22.55
2022-11-20T16:39:23.110Z,24.80
2022-11-20T16:41:51.351Z,36.20
2022-11-20T16:44:18.914Z,26.27
2022-11-20T16:46:46.623Z,28.00
2022-11-20T16:49:15.121Z,26.42
2022-11-20T16:51:43.069Z,37.85
2022-11-20T16:54:12.364Z,25.77
2022-11-20T16:56:43.072Z,25.08
2022-11-20T16:59:10.779Z,26.50
2022-11-20T17:01:40.289Z,28.48
2022-11-20T17:04:07.973Z,30.08
2022-11-20T17:06:36.865Z,28.42
2022-11-20T17:09:04.837Z,33.13
2022-11-20T17:11:33.784Z,29.20
2022-11-20T17:14:07.237Z,30.42
2022-11-20T17:16:36.174Z,26.38
2022-11-20T17:19:05.255Z,26.67
2022-11-20T17:21:33.473Z,27.40
2022-11-20T17:24:04.692Z,25.75
2022-11-20T17:26:33.278Z,27.35
2022-11-20T17:29:03.724Z,25.20
2022-11-20T17:31:32.303Z,24.83
2022-11-20T17:34:00.359Z,25.40
2022-11-20T17:36:28.565Z,25.88
2022-11-20T17:38:56.106Z,26.38
2022-11-20T17:41:25.203Z,27.35
2022-11-20T17:43:58.748Z,26.05
2022-11-20T17:46:27.962Z,24.58
2022-11-20T17:48:56.462Z,25.52
2022-11-20T17:51:25.308Z,26.25
2022-11-20T17:53:54.334Z,26.85
2022-11-20T17:56:40.705Z,27.80
2022-11-20T17:59:09.461Z,28.10
2022-11-20T18:01:37.107Z,27.05
2022-11-20T18:04:05.988Z,29.67
2022-11-20T18:06:33.835Z,27.42
2022-11-20T18:09:02.657Z,28.77
2022-11-20T18:11:33.702Z,27.75
2022-11-20T18:14:21.214Z,26.67
2022-11-20T18:16:51.701Z,25.85
2022-11-20T18:19:20.787Z,26.25
2022-11-20T18:21:48.496Z,27.15
2022-11-20T18:24:16.260Z,27.73
2022-11-20T18:26:44.603Z,26.83
2022-11-20T18:29:13.047Z,27.27
2022-11-20T18:31:41.110Z,29.52
2022-11-20T18:34:11.564Z,29.88
2022-11-20T18:36:39.854Z,32.30
2022-11-20T18:39:10.589Z,30.35
2022-11-20T18:41:57.501Z,33.28
2022-11-20T18:44:45.478Z,34.13
2022-11-20T18:47:15.115Z,35.55
2022-11-20T18:49:44.127Z,32.92
2022-11-20T18:52:12.414Z,31.73
2022-11-20T18:54:40.114Z,32.85
2022-11-20T18:57:10.529Z,33.53
2022-11-20T18:59:38.138Z,33.20
2022-11-20T19:02:06.021Z,31.17
2022-11-20T19:04:33.926Z,31.40
2022-11-20T19:07:01.637Z,31.73
2022-11-20T19:09:29.580Z,29.70
2022-11-20T19:11:57.390Z,30.02
2022-11-20T19:14:25.116Z,32.00
2022-11-20T19:16:52.889Z,31.42
2022-11-20T19:19:20.468Z,30.15
2022-11-20T19:21:48.014Z,31.42
2022-11-20T19:24:15.621Z,31.70
2022-11-20T19:26:43.530Z,32.55
2022-11-20T19:29:12.614Z,30.48
2022-11-20T19:31:40.194Z,34.30
2022-11-20T19:34:07.777Z,34.40
2022-11-20T19:36:41.684Z,34.83
2022-11-20T19:39:12.298Z,33.70
2022-11-20T19:41:40.701Z,34.28
2022-11-20T19:44:09.644Z,33.47
2022-11-20T19:46:37.810Z,33.45
2022-11-20T19:49:06.603Z,34.70
2022-11-20T19:51:35.303Z,34.58
2022-11-20T19:54:03.032Z,33.78
2022-11-20T19:56:31.737Z,36.22
2022-11-20T19:58:59.505Z,37.38
2022-11-20T20:01:28.795Z,38.05
2022-11-20T20:03:59.681Z,36.50
2022-11-20T20:06:27.750Z,37.08
2022-11-20T20:08:56.217Z,34.13
2022-11-20T20:11:24.816Z,34.42
2022-11-20T20:13:53.482Z,33.00
2022-11-20T20:16:22.813Z,29.08
2022-11-20T20:18:50.599Z,28.70
2022-11-20T20:21:18.602Z,29.35
2022-11-20T20:23:46.426Z,28.60
2022-11-20T20:26:13.985Z,29.88
2022-11-20T20:28:41.783Z,28.40
2022-11-20T20:31:10.537Z,29.20
2022-11-20T20:33:39.350Z,30.50
2022-11-20T20:36:07.615Z,31.15
2022-11-20T20:38:35.431Z,29.75
2022-11-20T20:41:02.982Z,31.42
2022-11-20T20:43:31.453Z,33.35
2022-11-20T20:45:58.975Z,35.95
2022-11-20T20:48:26.506Z,36.42
2022-11-20T20:50:57.833Z,36.20
2022-11-20T20:53:26.020Z,35.38
2022-11-20T20:55:57.072Z,33.78
2022-11-20T20:58:25.173Z,32.65
2022-11-20T21:00:52.978Z,33.55
2022-11-20T21:03:20.859Z,34.33
2022-11-20T21:05:55.981Z,35.92
2022-11-20T21:08:25.301Z,36.78
2022-11-20T21:10:53.952Z,35.67
2022-11-20T21:13:22.105Z,33.53
2022-11-20T21:15:50.787Z,34.67
2022-11-20T21:18:19.052Z,38.15
2022-11-20T21:21:05.775Z,41.08
2022-11-20T21:23:33.793Z,40.83
2022-11-20T21:26:06.411Z,35.13
2022-11-20T21:28:35.008Z,31.60
2022-11-20T21:31:07.175Z,31.75
2022-11-20T21:33:41.402Z,31.60
2022-11-20T21:36:10.055Z,31.70
2022-11-20T21:38:37.993Z,30.42
2022-11-20T21:41:06.835Z,29.45
2022-11-20T21:43:34.648Z,29.58
2022-11-20T21:46:06.484Z,30.20
2022-11-20T21:48:34.803Z,30.80
2022-11-20T21:51:06.901Z,31.23
2022-11-20T21:53:34.861Z,31.10
2022-11-20T21:56:04.358Z,31.50
2022-11-20T21:58:32.184Z,32.50
2022-11-20T22:00:59.766Z,31.13
2022-11-20T22:03:27.286Z,32.13
2022-11-20T22:05:56.047Z,31.85
2022-11-20T22:08:27.236Z,32.85
2022-11-20T22:10:59.510Z,32.72
2022-11-20T22:13:46.642Z,33.60
2022-11-20T22:16:14.667Z,33.92
2022-11-20T22:18:43.616Z,31.98
2022-11-20T22:21:11.356Z,29.92
2022-11-20T22:23:39.047Z,30.60
2022-11-20T22:26:08.025Z,30.65
2022-11-20T22:28:36.021Z,30.13
2022-11-20T22:31:04.861Z,29.20
2022-11-20T22:33:32.947Z,28.20
2022-11-20T22:36:01.403Z,28.50
2022-11-20T22:38:29.762Z,30.33
2022-11-20T22:41:03.748Z,30.17
2022-11-20T22:43:31.916Z,28.25
2022-11-20T22:46:13.337Z,28.58
2022-11-20T22:48:42.095Z,29.23
2022-11-20T22:51:10.965Z,27.95
2022-11-20T22:53:38.754Z,28.80
2022-11-20T22:56:07.543Z,29.08
2022-11-20T22:58:35.964Z,29.48
2022-11-20T23:01:20.324Z,30.17
2022-11-20T23:03:48.959Z,29.27
2022-11-20T23:06:17.425Z,28.55
2022-11-20T23:08:45.425Z,29.25
2022-11-20T23:11:14.528Z,28.52
2022-11-20T23:13:42.378Z,29.17
2022-11-20T23:16:11.815Z,28.60
2022-11-20T23:18:39.559Z,28.65
2022-11-20T23:21:11.970Z,28.80
2022-11-20T23:23:39.784Z,27.38
2022-11-20T23:26:11.837Z,27.83
2022-11-20T23:28:40.122Z,27.33
2022-11-20T23:31:08.121Z,26.85
2022-11-20T23:33:36.498Z,27.67
2022-11-20T23:36:04.307Z,26.85
2022-11-20T23:38:32.086Z,28.02
2022-11-20T23:40:59.643Z,27.63
2022-11-20T23:43:27.178Z,28.17
2022-11-20T23:45:58.595Z,29.33
2022-11-20T23:48:29.751Z,28.25
2022-11-20T23:50:57.562Z,28.15
2022-11-20T23:53:25.743Z,27.35
2022-11-20T23:55:54.266Z,27.05
2022-11-20T23:58:22.566Z,27.10
